createdAt,value
2022-10-29T00:01:42.038Z,1016.41
2022-10-29T00:08:02.034Z,1016.41
2022-10-29T00:14:25.004Z,1016.43
2022-10-29T00:20:44.970Z,1016.41
2022-10-29T00:27:08.025Z,1016.37
2022-10-29T00:33:28.025Z,1016.37
2022-10-29T00:39:51.009Z,1016.35
2022-10-29T00:46:10.995Z,1016.33
2022-10-29T00:52:34.025Z,1016.39
2022-10-29T00:58:54.002Z,1016.41
2022-10-29T01:05:17.005Z,1016.45
2022-10-29T01:11:36.998Z,1016.43
2022-10-29T01:17:59.986Z,1016.41
2022-10-29T01:24:20.009Z,1016.47
2022-10-29T01:30:43.026Z,1016.47
2022-10-29T01:37:02.990Z,1016.41
2022-10-29T01:43:25.986Z,1016.47
2022-10-29T01:49:46.013Z,1016.43
2022-10-29T01:56:08.987Z,1016.39
2022-10-29T02:02:29.012Z,1016.27
2022-10-29T02:08:52.000Z,1016.15
2022-10-29T02:15:11.986Z,1016.09
2022-10-29T02:21:34.998Z,1016.01
2022-10-29T02:27:55.202Z,1015.94
2022-10-29T02:34:17.996Z,1015.88
2022-10-29T02:40:37.971Z,1015.92
2022-10-29T02:47:01.036Z,1015.92
2022-10-29T02:53:20.980Z,1015.96
2022-10-29T02:59:44.009Z,1015.92
2022-10-29T03:06:04.018Z,1015.78
2022-10-29T03:12:27.006Z,1015.58
2022-10-29T03:18:46.986Z,1015.6
2022-10-29T03:25:10.033Z,1015.58
2022-10-29T03:42:10.993Z,1015.44
2022-10-29T03:48:33.978Z,1015.4
2022-10-29T03:54:54.003Z,1015.4
2022-10-29T04:01:17.121Z,1015.46
2022-10-29T04:07:36.968Z,1015.44
2022-10-29T04:13:59.986Z,1015.4
2022-10-29T04:20:31.677Z,1015.42
2022-10-29T04:33:02.965Z,1015.54
2022-10-29T04:39:25.997Z,1015.36
2022-10-29T04:45:45.986Z,1015.15
2022-10-29T04:52:08.976Z,1015.09
2022-10-29T04:58:29.008Z,1015.13
2022-10-29T05:04:51.990Z,1015.13
2022-10-29T05:11:12.005Z,1015.16
2022-10-29T05:17:35.008Z,1014.95
2022-10-29T05:23:54.983Z,1014.83
2022-10-29T05:30:18.002Z,1014.79
2022-10-29T05:36:38.008Z,1014.69
2022-10-29T05:43:01.271Z,1014.62
2022-10-29T05:49:21.031Z,1014.68
2022-10-29T05:55:44.003Z,1014.75
2022-10-29T06:02:04.154Z,1014.79
2022-10-29T06:08:26.974Z,1014.89
2022-10-29T06:14:47.011Z,1014.83
2022-10-29T06:21:10.017Z,1014.85
2022-10-29T06:27:29.985Z,1014.83
2022-10-29T06:33:53.004Z,1014.81
2022-10-29T06:40:13.019Z,1014.69
2022-10-29T06:46:35.990Z,1014.6
2022-10-29T06:52:56.229Z,1014.66
2022-10-29T06:59:19.002Z,1014.69
2022-10-29T07:05:38.987Z,1014.69
2022-10-29T07:12:02.013Z,1014.83
2022-10-29T07:18:21.977Z,1014.79
2022-10-29T07:24:45.008Z,1014.79
2022-10-29T07:31:05.011Z,1014.85
2022-10-29T07:37:28.008Z,1014.95
2022-10-29T07:43:48.026Z,1015.09
2022-10-29T07:50:11.008Z,1015.16
2022-10-29T07:56:31.009Z,1015.2
2022-10-29T08:02:53.976Z,1015.16
2022-10-29T08:09:14.033Z,1015.13
2022-10-29T08:15:37.010Z,1015.11
2022-10-29T08:21:56.978Z,1015.07
2022-10-29T08:28:20.941Z,1015.01
2022-10-29T08:34:39.995Z,1014.97
2022-10-29T08:41:03.003Z,1014.77
2022-10-29T08:47:23.068Z,1014.73
2022-10-29T09:03:15.515Z,1014.83
2022-10-29T09:09:35.137Z,1014.81
2022-10-29T09:15:58.090Z,1014.79
2022-10-29T09:22:18.057Z,1014.73
2022-10-29T09:28:41.042Z,1014.71
2022-10-29T09:35:01.050Z,1014.71
2022-10-29T09:41:24.022Z,1014.69
2022-10-29T09:47:43.993Z,1014.66
2022-10-29T09:54:07.041Z,1014.68
2022-10-29T10:00:26.995Z,1014.62
2022-10-29T10:06:50.069Z,1014.5
2022-10-29T10:13:14.196Z,1014.54
2022-10-29T10:19:33.016Z,1014.56
2022-10-29T10:25:53.115Z,1014.54
2022-10-29T10:32:15.990Z,1014.54
2022-10-29T10:38:36.027Z,1014.46
2022-10-29T10:44:58.985Z,1014.46
2022-10-29T10:51:18.984Z,1014.38
2022-10-29T10:57:42.020Z,1014.32
2022-10-29T11:04:01.980Z,1014.28
2022-10-29T11:10:24.988Z,1014.21
2022-10-29T11:16:45.008Z,1014.15
2022-10-29T11:23:07.992Z,1014.07
2022-10-29T11:29:27.984Z,1014.03
2022-10-29T11:35:51.024Z,1014.05
2022-10-29T11:42:10.977Z,1013.99
2022-10-29T11:48:33.976Z,1013.97
2022-10-29T11:54:54.016Z,1013.93
2022-10-29T12:01:17.043Z,1013.83
2022-10-29T12:07:36.988Z,1013.79
2022-10-29T12:14:00.011Z,1013.79
2022-10-29T12:20:21.041Z,1013.79
2022-10-29T12:26:42.981Z,1013.77
2022-10-29T12:33:02.998Z,1013.68
2022-10-29T12:39:25.977Z,1013.62
2022-10-29T12:46:06.739Z,1013.58
2022-10-29T12:52:09.004Z,1013.58
2022-10-29T12:58:29.006Z,1013.56
2022-10-29T13:04:51.985Z,1013.52
2022-10-29T13:11:11.999Z,1013.5
2022-10-29T13:17:34.996Z,1013.42
2022-10-29T13:23:54.991Z,1013.3
2022-10-29T13:30:18.027Z,1013.25
2022-10-29T13:36:37.977Z,1013.08
2022-10-29T13:43:00.987Z,1013
2022-10-29T13:49:21.018Z,1012.89
2022-10-29T13:55:43.982Z,1012.81
2022-10-29T14:02:04.190Z,1012.69
2022-10-29T14:08:27.010Z,1012.57
2022-10-29T14:14:46.978Z,1012.53
2022-10-29T14:21:09.984Z,1012.55
2022-10-29T14:43:54.981Z,1012.69
2022-10-29T14:50:18.140Z,1012.67
2022-10-29T14:56:38.003Z,1012.67
2022-10-29T15:03:01.426Z,1012.57
2022-10-29T15:09:20.990Z,1012.59
2022-10-29T15:15:44.054Z,1012.53
2022-10-29T15:22:04.006Z,1012.59
2022-10-29T15:28:27.084Z,1012.59
2022-10-29T15:34:46.984Z,1012.59
2022-10-29T15:41:10.003Z,1012.55
2022-10-29T15:47:30.146Z,1012.57
2022-10-29T15:53:52.976Z,1012.61
2022-10-29T16:00:13.009Z,1012.59
2022-10-29T16:06:36.029Z,1012.55
2022-10-29T16:12:56.234Z,1012.55
2022-10-29T16:19:18.998Z,1012.51
2022-10-29T16:25:39.035Z,1012.47
2022-10-29T16:32:01.977Z,1012.43
2022-10-29T16:38:21.989Z,1012.43
2022-10-29T16:44:45.038Z,1012.38
2022-10-29T16:51:04.995Z,1012.32
2022-10-29T16:57:27.996Z,1012.26
2022-10-29T17:03:48.159Z,1012.22
2022-10-29T17:10:11.224Z,1012.18
2022-10-29T17:16:31.244Z,1012.22
2022-10-29T17:22:54.245Z,1012.2
2022-10-29T17:29:14.028Z,1012.18
2022-10-29T17:35:37.039Z,1012.16
2022-10-29T17:41:56.958Z,1012.18
2022-10-29T17:48:22.372Z,1012.14
2022-10-29T17:54:40.044Z,1012.2
2022-10-29T18:01:03.103Z,1012.22
2022-10-29T18:07:23.001Z,1012.2
2022-10-29T18:13:46.007Z,1012.24
2022-10-29T18:20:06.014Z,1012.3
2022-10-29T18:26:29.008Z,1012.36
2022-10-29T18:32:49.036Z,1012.32
2022-10-29T18:39:11.997Z,1012.32
2022-10-29T18:45:32.047Z,1012.3
2022-10-29T18:51:55.071Z,1012.24
2022-10-29T18:58:14.970Z,1012.22
2022-10-29T19:04:38.004Z,1012.14
2022-10-29T19:10:57.999Z,1012.16
2022-10-29T19:17:21.015Z,1012.28
2022-10-29T19:23:41.054Z,1012.28
2022-10-29T19:47:33.013Z,1012.3
2022-10-29T19:53:55.988Z,1012.26
2022-10-29T20:00:17.532Z,1012.3
2022-10-29T20:06:38.991Z,1012.24
2022-10-29T20:12:59.141Z,1012.22
2022-10-29T20:19:21.977Z,1012.18
2022-10-29T20:25:42.013Z,1012.22
2022-10-29T20:32:04.979Z,1012.22
2022-10-29T20:38:24.974Z,1012.2
2022-10-29T20:44:48.009Z,1012.22
2022-10-29T20:51:07.961Z,1012.24
2022-10-29T20:57:30.989Z,1012.26
2022-10-29T21:03:51.011Z,1012.32
2022-10-29T21:10:13.995Z,1012.4
2022-10-29T21:16:33.973Z,1012.43
2022-10-29T21:22:57.282Z,1012.47
2022-10-29T21:29:16.987Z,1012.53
2022-10-29T21:35:39.972Z,1012.55
2022-10-29T21:41:59.996Z,1012.59
2022-10-29T21:48:22.989Z,1012.65
2022-10-29T21:54:42.976Z,1012.71
2022-10-29T22:20:17.006Z,1012.57
2022-10-29T22:26:36.970Z,1012.55
2022-10-29T22:32:59.999Z,1012.59
2022-10-29T22:39:19.999Z,1012.65
2022-10-29T22:45:43.007Z,1012.69
2022-10-29T22:52:02.985Z,1012.65
2022-10-29T22:58:26.002Z,1012.59
2022-10-29T23:04:45.981Z,1012.55
2022-10-29T23:11:08.986Z,1012.49
2022-10-29T23:17:29.006Z,1012.43
2022-10-29T23:23:51.983Z,1012.49
2022-10-29T23:30:11.987Z,1012.51
2022-10-29T23:36:35.019Z,1012.49
2022-10-29T23:42:54.984Z,1012.57
2022-10-29T23:49:18.017Z,1012.59
2022-10-29T23:55:38.015Z,1012.55
